Time;durP1;ratioP1;P1;durP2;ratioP2;P2;SDS_P1;SDS_P2;PMS_P1;PMS_P2;Temp;Humidity;BMP_temperature;BMP_pressure;BME280_temperature;BME280_humidity;BME280_pressure;Samples;Min_cycle;Max_cycle;Signal;HPM_P1;HPM_P2
2023/10/02 00:03:34;;;;;;;29.60;20.45;;;;;;;15.35;100.00;101929.59;5063349;28;20067;-65
2023/10/02 00:05:59;;;;;;;30.48;21.42;;;;;;;15.32;100.00;101927.41;5056748;28;20032;-65
2023/10/02 00:08:41;;;;;;;28.55;20.48;;;;;;;15.29;100.00;101930.84;5073254;28;20032;-65
2023/10/02 00:14:19;;;;;;;29.02;21.25;;;;;;;15.22;100.00;101922.06;5057352;28;20106;-66
2023/10/02 00:16:58;;;;;;;30.00;21.70;;;;;;;15.19;100.00;101928.28;5065085;28;20111;-66
2023/10/02 00:19:27;;;;;;;29.70;21.75;;;;;;;15.16;100.00;101924.13;5062381;28;20104;-66
2023/10/02 00:21:57;;;;;;;28.75;20.60;;;;;;;15.12;100.00;101929.50;5062881;28;20024;-66
2023/10/02 00:24:24;;;;;;;29.73;20.52;;;;;;;15.09;100.00;101930.16;5066972;28;20032;-66
2023/10/02 00:26:51;;;;;;;30.17;22.02;;;;;;;15.06;100.00;101925.19;5072864;28;20160;-66
2023/10/02 00:29:17;;;;;;;29.55;21.13;;;;;;;15.03;100.00;101927.78;5072220;28;20033;-66
2023/10/02 00:31:46;;;;;;;28.70;20.40;;;;;;;15.00;100.00;101929.22;5071837;28;20025;-67
2023/10/02 00:34:13;;;;;;;30.70;21.08;;;;;;;14.95;100.00;101924.56;5057704;28;20029;-69
2023/10/02 00:36:39;;;;;;;28.50;21.20;;;;;;;14.92;100.00;101925.19;5071701;28;20033;-66
2023/10/02 00:44:51;;;;;;;;;;;;;;;14.93;100.00;101926.00;5072576;28;20039;-66
2023/10/02 00:47:35;;;;;;;28.77;20.45;;;;;;;14.89;100.00;101922.19;5062223;28;20352;-66
2023/10/02 00:50:08;;;;;;;30.58;21.40;;;;;;;14.85;100.00;101916.44;5068671;28;20075;-65
2023/10/02 00:52:58;;;;;;;28.73;20.05;;;;;;;14.82;100.00;101919.81;5052775;28;20414;-65
2023/10/02 00:55:35;;;;;;;28.63;19.42;;;;;;;14.81;100.00;101916.22;5057349;28;20052;-66
2023/10/02 00:58:02;;;;;;;29.40;20.05;;;;;;;14.75;100.00;101906.28;5067523;28;20453;-64
2023/10/02 01:00:35;;;;;;;28.45;20.05;;;;;;;14.76;100.00;101915.50;5057518;28;20082;-65
2023/10/02 01:03:04;;;;;;;30.13;20.20;;;;;;;14.74;100.00;101903.81;5068793;28;20029;-63
2023/10/02 01:05:42;;;;;;;28.17;19.67;;;;;;;14.70;100.00;101906.41;5060150;28;20075;-64
2023/10/02 01:08:24;;;;;;;28.85;20.05;;;;;;;14.68;100.00;101907.84;5065878;28;20490;-64
2023/10/02 01:10:56;;;;;;;28.17;19.25;;;;;;;14.61;100.00;101902.66;5066277;28;20069;-64
2023/10/02 01:13:27;;;;;;;28.67;20.27;;;;;;;14.64;100.00;101902.06;5052085;28;20092;-65
2023/10/02 01:15:54;;;;;;;28.60;19.42;;;;;;;14.61;100.00;101914.59;5059123;28;20024;-65
2023/10/02 01:18:22;;;;;;;28.52;20.20;;;;;;;14.57;100.00;101904.41;5072013;28;20157;-64
2023/10/02 01:20:53;;;;;;;28.15;19.83;;;;;;;14.54;100.00;101894.69;5064001;28;20029;-64
2023/10/02 01:23:23;;;;;;;27.70;20.02;;;;;;;14.51;100.00;101895.31;5069617;28;20471;-64
2023/10/02 01:25:49;;;;;;;27.33;20.42;;;;;;;14.47;100.00;101899.84;5054137;28;20193;-64
2023/10/02 01:28:25;;;;;;;28.90;20.35;;;;;;;14.47;100.00;101897.88;5069487;28;20066;-65
2023/10/02 01:30:50;;;;;;;28.73;20.05;;;;;;;14.45;100.00;101897.34;5054689;28;20060;-65
2023/10/02 01:33:21;;;;;;;27.75;19.67;;;;;;;14.46;100.00;101895.41;5052391;28;20053;-64
2023/10/02 01:35:48;;;;;;;28.33;20.70;;;;;;;14.42;100.00;101899.94;5063402;28;20070;-64
2023/10/02 01:38:36;;;;;;;28.85;20.27;;;;;;;14.40;100.00;101896.66;5061210;28;20032;-65
2023/10/02 01:41:04;;;;;;;30.65;19.85;;;;;;;14.38;100.00;101904.47;5067808;28;20386;-64
2023/10/02 01:43:39;;;;;;;28.08;19.45;;;;;;;14.31;100.00;101893.75;5055295;28;20108;-65
2023/10/02 01:46:05;;;;;;;28.67;20.00;;;;;;;14.29;100.00;101901.56;5060838;28;20083;-64
2023/10/02 01:48:44;;;;;;;30.73;21.88;;;;;;;14.29;100.00;101896.84;5058996;28;20110;-64
2023/10/02 01:51:21;;;;;;;32.00;21.20;;;;;;;14.30;100.00;101897.66;5059015;28;20400;-64
2023/10/02 01:53:51;;;;;;;27.38;19.27;;;;;;;14.26;100.00;101899.41;5055270;28;20043;-64
2023/10/02 01:56:18;;;;;;;28.50;19.65;;;;;;;14.25;100.00;101895.78;5065499;28;20031;-63
2023/10/02 01:58:45;;;;;;;26.75;19.33;;;;;;;14.23;100.00;101903.59;5049370;28;20028;-64
2023/10/02 02:01:11;;;;;;;29.02;19.98;;;;;;;14.24;100.00;101902.47;5064264;28;20028;-65
2023/10/02 02:03:41;;;;;;;28.45;19.55;;;;;;;14.24;100.00;101899.69;5068511;28;20510;-64
2023/10/02 02:06:10;;;;;;;27.98;18.77;;;;;;;14.20;100.00;101893.91;5058025;28;20496;-64
2023/10/02 02:08:43;;;;;;;26.80;19.15;;;;;;;14.21;100.00;101894.75;5051497;28;20028;-64
2023/10/02 02:11:16;;;;;;;28.13;18.77;;;;;;;14.24;100.00;101898.88;5062282;28;20499;-64
2023/10/02 02:13:49;;;;;;;29.50;19.00;;;;;;;14.23;100.00;101897.22;5071369;28;20453;-64
2023/10/02 02:16:22;;;;;;;30.83;19.60;;;;;;;14.21;100.00;101891.97;5051748;28;20021;-64
2023/10/02 02:18:56;;;;;;;27.42;19.40;;;;;;;14.21;100.00;101894.75;5053938;28;20036;-64
2023/10/02 02:21:26;;;;;;;28.25;18.38;;;;;;;14.19;100.00;101889.47;5067340;28;20017;-64
2023/10/02 02:24:07;;;;;;;27.80;18.80;;;;;;;14.22;100.00;101901.13;5059177;28;20064;-64
2023/10/02 02:26:33;;;;;;;27.30;18.00;;;;;;;14.22;100.00;101888.03;5051310;28;20124;-65
2023/10/02 02:29:01;;;;;;;26.58;18.20;;;;;;;14.19;100.00;101895.03;5069424;28;20036;-64
2023/10/02 02:31:31;;;;;;;28.23;19.05;;;;;;;14.18;100.00;101887.81;5049689;28;20024;-64
2023/10/02 02:34:08;;;;;;;29.30;19.40;;;;;;;14.15;100.00;101891.25;5062646;28;20051;-65
2023/10/02 02:36:35;;;;;;;29.58;19.00;;;;;;;14.13;100.00;101887.94;5073729;28;20472;-64
2023/10/02 02:39:20;;;;;;;28.85;18.73;;;;;;;14.12;100.00;101886.28;5073983;28;20036;-64
2023/10/02 02:42:08;;;;;;;30.27;19.40;;;;;;;14.11;100.00;101884.63;5055303;28;20045;-65
2023/10/02 02:44:39;;;;;;;29.52;20.30;;;;;;;14.10;100.00;101882.97;5056361;28;20090;-64
2023/10/02 02:47:09;;;;;;;29.23;19.17;;;;;;;14.12;100.00;101885.47;5059418;28;20036;-64
2023/10/02 02:49:48;;;;;;;27.35;18.67;;;;;;;14.10;100.00;101877.41;5062677;28;20151;-64
2023/10/02 02:52:17;;;;;;;29.42;20.20;;;;;;;14.10;100.00;101873.81;5055667;28;20029;-64
2023/10/02 02:55:26;;;;;;;28.17;19.58;;;;;;;14.12;100.00;101875.13;5069601;28;20025;-64
2023/10/02 02:57:34;;;;;;;27.98;19.17;;;;;;;14.11;100.00;101876.28;5051416;28;20040;-63
2023/10/02 03:02:53;;;;;;;29.00;19.48;;;;;;;14.14;100.00;101861.75;5063586;28;20112;-63
2023/10/02 03:05:21;;;;;;;27.25;19.05;;;;;;;14.14;100.00;101867.31;5073421;28;20028;-64
2023/10/02 03:07:49;;;;;;;27.08;19.77;;;;;;;14.14;100.00;101870.09;5069228;28;20077;-64
2023/10/02 03:10:16;;;;;;;28.83;19.58;;;;;;;14.16;100.00;101864.22;5054482;28;20090;-64
2023/10/02 03:12:48;;;;;;;27.58;19.75;;;;;;;14.14;100.00;101866.47;5058004;28;20039;-64
2023/10/02 03:15:13;;;;;;;28.33;19.55;;;;;;;14.12;100.00;101864.00;5065613;28;20056;-64
2023/10/02 03:17:41;;;;;;;28.42;19.90;;;;;;;14.12;100.00;101858.44;5055375;28;20123;-64
2023/10/02 03:20:22;;;;;;;29.27;19.63;;;;;;;14.13;100.00;101853.69;5054030;28;20033;-64
2023/10/02 03:22:51;;;;;;;28.58;19.40;;;;;;;14.10;100.00;101852.34;5063949;28;20040;-65
2023/10/02 03:25:41;;;;;;;27.75;18.98;;;;;;;14.09;100.00;101847.91;5074222;28;20043;-65
2023/10/02 03:28:16;;;;;;;29.00;19.42;;;;;;;14.09;100.00;101849.88;5058554;28;20243;-64
2023/10/02 03:30:46;;;;;;;27.83;18.63;;;;;;;14.07;100.00;101839.06;5074211;28;20468;-65
2023/10/02 03:33:18;;;;;;;28.83;19.58;;;;;;;14.06;100.00;101851.34;5067362;28;20032;-64
2023/10/02 03:35:58;;;;;;;28.10;19.40;;;;;;;14.04;100.00;101843.28;5074045;28;20047;-65
2023/10/02 03:38:33;;;;;;;27.52;18.92;;;;;;;14.07;100.00;101849.38;5067895;28;20458;-65
2023/10/02 03:41:01;;;;;;;29.35;19.80;;;;;;;14.03;100.00;101844.41;5073709;28;20083;-64
2023/10/02 03:43:48;;;;;;;29.55;19.60;;;;;;;14.03;100.00;101851.94;5069109;28;20029;-64
2023/10/02 03:46:35;;;;;;;29.58;19.52;;;;;;;13.99;100.00;101848.94;5056797;28;20112;-64
2023/10/02 03:49:03;;;;;;;27.98;19.10;;;;;;;13.98;100.00;101847.28;5059905;28;20024;-65
2023/10/02 03:51:36;;;;;;;28.60;18.55;;;;;;;13.97;100.00;101844.81;5062052;28;20025;-64
2023/10/02 03:54:18;;;;;;;29.63;18.73;;;;;;;13.95;100.00;101847.06;5054396;28;20090;-64
2023/10/02 03:56:51;;;;;;;27.33;19.38;;;;;;;13.93;100.00;101846.53;5066136;28;20032;-64
2023/10/02 03:59:25;;;;;;;29.48;19.60;;;;;;;13.93;100.00;101846.53;5073172;28;20039;-64
2023/10/02 04:01:51;;;;;;;26.92;18.80;;;;;;;13.90;100.00;101847.97;5062679;28;20381;-65
2023/10/02 04:06:43;;;;;;;27.73;19.67;;;;;;;13.87;100.00;101852.22;5068842;28;20124;-64
2023/10/02 04:09:23;;;;;;;30.70;19.73;;;;;;;13.86;100.00;101847.78;5068741;28;20032;-65
2023/10/02 04:11:54;;;;;;;28.48;19.33;;;;;;;13.83;100.00;101842.00;5061994;28;20075;-64
2023/10/02 04:14:33;;;;;;;29.20;19.52;;;;;;;13.83;100.00;101853.94;5054931;28;20118;-64
2023/10/02 04:17:49;;;;;;;28.88;19.75;;;;;;;13.82;100.00;101843.13;5067089;28;20035;-64
2023/10/02 04:19:51;;;;;;;29.90;19.25;;;;;;;13.80;100.00;101846.19;5056139;28;20036;-65
2023/10/02 04:22:25;;;;;;;28.48;20.08;;;;;;;13.85;100.00;101840.56;5061272;28;20040;-65
2023/10/02 04:24:53;;;;;;;;;;;;;;;13.88;100.00;101836.34;5054429;28;20047;-65
2023/10/02 04:30:25;;;;;;;27.73;19.17;;;;;;;13.84;100.00;101838.06;5039199;28;20043;-65
2023/10/02 04:33:07;;;;;;;29.95;20.08;;;;;;;13.81;100.00;101845.06;5070166;28;20017;-64
2023/10/02 04:35:45;;;;;;;28.63;20.00;;;;;;;13.78;100.00;101842.91;5072998;28;20037;-64
2023/10/02 04:38:47;;;;;;;29.70;20.02;;;;;;;13.77;100.00;101841.25;5060793;28;20031;-64
2023/10/02 04:41:05;;;;;;;29.95;19.85;;;;;;;13.79;100.00;101841.75;5058617;28;20081;-64
2023/10/02 04:43:34;;;;;;;28.42;19.77;;;;;;;13.75;100.00;101832.38;5052123;28;20151;-64
2023/10/02 04:46:08;;;;;;;28.10;19.50;;;;;;;13.73;100.00;101835.47;5065928;28;20537;-64
2023/10/02 04:48:42;;;;;;;30.33;19.30;;;;;;;13.73;100.00;101835.47;5062729;28;20091;-64
2023/10/02 04:51:08;;;;;;;;;;;;;;;13.78;100.00;101842.06;5068469;28;20051;-64
2023/10/02 04:53:35;;;;;;;29.15;20.08;;;;;;;13.75;100.00;101853.78;5068495;28;19908;-64
2023/10/02 04:56:07;;;;;;;27.65;20.60;;;;;;;13.75;100.00;101842.66;5062932;28;20032;-64
2023/10/02 04:58:39;;;;;;;28.15;19.98;;;;;;;13.72;100.00;101842.16;5071495;28;20029;-64
2023/10/02 05:03:52;;;;;;;32.08;21.00;;;;;;;13.64;100.00;101837.28;5065286;28;20032;-64
2023/10/02 05:06:39;;;;;;;29.15;20.45;;;;;;;13.62;100.00;101831.22;5063788;28;20056;-64
2023/10/02 05:11:52;;;;;;;30.58;20.95;;;;;;;13.59;100.00;101833.78;5065354;28;20364;-64
2023/10/02 05:14:44;;;;;;;29.67;21.13;;;;;;;13.55;100.00;101826.03;5059503;28;20057;-64
2023/10/02 05:17:19;;;;;;;30.00;21.35;;;;;;;13.54;100.00;101831.91;5069204;28;20024;-64
2023/10/02 05:19:57;;;;;;;30.38;20.52;;;;;;;13.53;100.00;101830.25;5064340;28;20078;-66
2023/10/02 05:22:27;;;;;;;29.02;21.20;;;;;;;13.49;100.00;101830.03;5067827;28;20028;-65
2023/10/02 05:25:00;;;;;;;30.80;20.65;;;;;;;13.48;100.00;101841.41;5066288;28;20388;-65
2023/10/02 05:27:36;;;;;;;29.92;20.13;;;;;;;13.43;100.00;101842.31;5065277;28;20043;-65
2023/10/02 05:30:12;;;;;;;32.08;20.50;;;;;;;13.44;100.00;101843.97;5069145;28;20028;-65
2023/10/02 05:32:39;;;;;;;28.95;19.98;;;;;;;13.41;100.00;101850.97;5060340;28;20138;-65
2023/10/02 05:37:43;;;;;;;30.10;20.23;;;;;;;13.40;100.00;101846.53;5062532;28;20091;-65
2023/10/02 05:46:09;;;;;;;31.60;21.60;;;;;;;13.39;100.00;101846.84;5063211;28;20477;-65
2023/10/02 05:50:54;;;;;;;28.48;18.98;;;;;;;13.40;100.00;101857.66;5055951;28;20075;-65
2023/10/02 05:53:21;;;;;;;30.65;19.60;;;;;;;13.38;100.00;101865.44;5071283;28;20025;-64
2023/10/02 05:58:44;;;;;;;29.13;18.95;;;;;;;13.43;100.00;101858.19;5024550;28;20064;-65
2023/10/02 06:01:18;;;;;;;30.92;18.88;;;;;;;13.44;100.00;101868.19;5057609;28;20464;-65
2023/10/02 06:03:45;;;;;;;;;;;;;;;13.53;100.00;101867.19;5070626;28;20029;-65
2023/10/02 06:06:18;;;;;;;29.63;18.58;;;;;;;13.55;100.00;101858.56;5066856;28;19916;-65
2023/10/02 06:08:56;;;;;;;30.02;19.70;;;;;;;13.59;100.00;101856.00;5054292;28;20039;-65
2023/10/02 06:11:25;;;;;;;29.13;18.40;;;;;;;13.65;100.00;101858.38;5073513;28;20144;-63
2023/10/02 06:13:56;;;;;;;29.88;19.08;;;;;;;13.73;100.00;101868.84;5066222;28;20078;-63
2023/10/02 06:16:28;;;;;;;29.95;18.98;;;;;;;13.79;100.00;101865.97;5074604;28;20078;-64
2023/10/02 06:19:02;;;;;;;30.30;18.95;;;;;;;13.85;100.00;101864.75;5074320;28;20119;-64
2023/10/02 06:21:32;;;;;;;29.60;18.85;;;;;;;13.89;100.00;101866.63;5059659;28;20036;-63
2023/10/02 06:23:58;;;;;;;29.45;19.25;;;;;;;13.96;100.00;101870.97;5067783;28;20115;-64
2023/10/02 06:26:29;;;;;;;29.77;19.02;;;;;;;14.00;100.00;101867.28;5063890;28;20029;-64
2023/10/02 06:29:20;;;;;;;28.60;18.85;;;;;;;14.06;100.00;101869.97;5059870;28;20380;-64
2023/10/02 06:31:51;;;;;;;29.05;19.60;;;;;;;14.14;100.00;101877.59;5068020;28;20024;-64
2023/10/02 06:34:16;;;;;;;29.35;19.30;;;;;;;14.16;100.00;101867.84;5054690;28;20452;-64
2023/10/02 06:37:02;;;;;;;30.63;19.85;;;;;;;14.20;100.00;101873.63;5074271;28;20032;-63
2023/10/02 06:39:29;;;;;;;29.50;19.25;;;;;;;14.24;100.00;101877.44;5077591;28;20147;-63
2023/10/02 06:42:04;;;;;;;33.03;21.10;;;;;;;14.30;100.00;101872.59;5077186;28;20479;-64
2023/10/02 06:44:35;;;;;;;31.20;21.67;;;;;;;14.33;100.00;101875.59;5077217;28;20028;-63
2023/10/02 06:47:04;;;;;;;31.40;20.50;;;;;;;14.40;100.00;101877.97;5076835;28;20036;-64
2023/10/02 06:49:29;;;;;;;29.52;19.48;;;;;;;14.47;100.00;101872.00;5077527;28;20075;-64
2023/10/02 06:52:10;;;;;;;30.00;19.50;;;;;;;14.53;100.00;101867.19;5069536;28;20037;-64
2023/10/02 06:54:42;;;;;;;29.23;19.02;;;;;;;14.62;100.00;101877.28;5077886;28;20116;-65
2023/10/02 06:57:11;;;;;;;28.83;18.75;;;;;;;14.68;100.00;101883.59;5076554;28;20054;-63
2023/10/02 06:59:38;;;;;;;30.08;19.65;;;;;;;14.74;100.00;101878.75;5076588;28;20025;-64
2023/10/02 07:02:06;;;;;;;30.23;19.27;;;;;;;14.79;100.00;101885.06;5074760;28;20025;-63
2023/10/02 07:04:34;;;;;;;31.38;19.92;;;;;;;14.84;100.00;101886.91;5067002;28;20052;-65
2023/10/02 07:07:03;;;;;;;31.73;20.25;;;;;;;14.91;100.00;101870.59;5076995;28;20029;-65
2023/10/02 07:09:36;;;;;;;30.63;20.05;;;;;;;15.00;100.00;101872.66;5076521;28;20410;-65
2023/10/02 07:12:14;;;;;;;31.40;20.65;;;;;;;15.07;100.00;101859.94;5074104;28;20032;-65
2023/10/02 07:14:41;;;;;;;30.40;21.20;;;;;;;15.12;100.00;101870.97;5073986;28;20071;-65
2023/10/02 07:17:16;;;;;;;31.73;20.88;;;;;;;15.23;100.00;101870.75;5076074;28;20438;-63
2023/10/02 07:19:51;;;;;;;31.42;20.25;;;;;;;15.32;100.00;101868.06;5068913;28;20123;-64
2023/10/02 07:22:22;;;;;;;29.83;20.35;;;;;;;15.36;100.00;101867.13;5069518;28;20126;-64
2023/10/02 07:24:48;;;;;;;34.30;22.02;;;;;;;15.47;100.00;101870.50;5068229;28;20036;-64
2023/10/02 07:27:24;;;;;;;31.65;22.08;;;;;;;15.56;100.00;101862.22;5065778;28;20044;-64
2023/10/02 07:29:51;;;;;;;31.02;21.67;;;;;;;15.69;100.00;101864.09;5065206;28;20028;-64
2023/10/02 07:32:18;;;;;;;33.42;22.30;;;;;;;15.82;100.00;101867.97;5061318;28;20032;-64
2023/10/02 07:34:47;;;;;;;33.53;22.08;;;;;;;15.97;100.00;101869.59;5067822;28;20033;-64
2023/10/02 07:37:15;;;;;;;31.73;21.65;;;;;;;16.11;100.00;101872.28;5061332;28;20089;-64
2023/10/02 07:39:42;;;;;;;31.63;21.80;;;;;;;16.25;100.00;101869.41;5069415;28;20032;-64
2023/10/02 07:42:10;;;;;;;32.58;22.15;;;;;;;16.40;100.00;101879.34;5067867;28;20057;-65
2023/10/02 07:44:39;;;;;;;32.67;21.40;;;;;;;16.57;100.00;101881.41;5053268;28;20028;-63
2023/10/02 07:47:16;;;;;;;30.48;20.88;;;;;;;16.65;100.00;101883.41;5057293;28;20032;-63
2023/10/02 07:49:46;;;;;;;33.08;21.40;;;;;;;16.68;100.00;101880.00;5066848;28;20112;-64
2023/10/02 07:52:26;;;;;;;32.03;20.60;;;;;;;16.74;100.00;101882.63;5059901;28;20032;-63
2023/10/02 07:54:58;;;;;;;32.17;22.15;;;;;;;16.78;100.00;101880.84;5061308;28;20100;-64
2023/10/02 07:57:30;;;;;;;32.92;22.80;;;;;;;16.82;100.00;101879.88;5064836;28;20136;-63
2023/10/02 07:59:57;;;;;;;32.47;22.58;;;;;;;16.80;100.00;101876.56;5064428;28;20036;-63
2023/10/02 08:02:23;;;;;;;35.08;21.75;;;;;;;16.83;100.00;101873.13;5071234;28;20039;-64
2023/10/02 08:04:52;;;;;;;33.92;22.52;;;;;;;16.87;100.00;101876.09;5063670;28;20051;-64
2023/10/02 08:07:18;;;;;;;33.67;22.02;;;;;;;16.93;100.00;101871.19;5070597;28;20052;-64
2023/10/02 08:09:47;;;;;;;32.60;21.13;;;;;;;16.98;100.00;101869.09;5059136;28;20074;-64
2023/10/02 08:12:29;;;;;;;33.10;21.52;;;;;;;17.06;100.00;101869.44;5072114;28;20417;-65
2023/10/02 08:15:26;;;;;;;31.58;20.85;;;;;;;17.14;100.00;101868.63;5072420;28;20488;-65
2023/10/02 08:20:16;;;;;;;32.85;22.73;;;;;;;17.21;100.00;101879.34;5071937;28;20056;-63
2023/10/02 08:22:45;;;;;;;34.22;22.05;;;;;;;17.26;100.00;101887.56;5071893;28;20035;-63
2023/10/02 08:25:14;;;;;;;33.17;22.02;;;;;;;17.30;100.00;101888.56;5071917;28;20032;-65
2023/10/02 08:27:42;;;;;;;32.75;20.90;;;;;;;17.38;100.00;101892.53;5071787;28;20095;-67
2023/10/02 08:30:27;;;;;;;31.60;20.98;;;;;;;17.48;100.00;101891.38;5071528;28;20440;-65
2023/10/02 08:33:05;;;;;;;33.63;22.08;;;;;;;17.58;100.00;101886.25;5071774;28;20471;-64
2023/10/02 08:35:37;;;;;;;33.83;22.42;;;;;;;17.71;100.00;101883.63;5071760;28;20031;-64
2023/10/02 08:38:07;;;;;;;32.22;21.98;;;;;;;17.81;100.00;101880.50;5055881;28;20173;-65
2023/10/02 08:40:33;;;;;;;32.83;21.48;;;;;;;18.02;100.00;101891.88;5057667;28;20049;-65
2023/10/02 08:42:58;;;;;;;32.88;20.50;;;;;;;18.23;100.00;101889.19;5059522;28;20120;-65
2023/10/02 08:45:24;;;;;;;31.17;19.65;;;;;;;18.47;100.00;101881.34;5061474;28;20487;-65
2023/10/02 08:47:49;;;;;;;31.67;21.23;;;;;;;18.68;100.00;101875.84;5063336;28;20033;-66
2023/10/02 08:50:16;;;;;;;32.22;20.17;;;;;;;18.96;100.00;101869.81;5069618;28;20043;-64
2023/10/02 08:52:47;;;;;;;33.67;21.65;;;;;;;19.12;100.00;101879.25;5062793;28;20074;-65
2023/10/02 08:55:51;;;;;;;29.88;19.45;;;;;;;19.27;100.00;101871.44;5061711;28;20033;-64
2023/10/02 08:58:21;;;;;;;29.92;18.85;;;;;;;19.41;100.00;101883.19;5054043;28;20109;-65
2023/10/02 09:03:30;;;;;;;29.98;20.38;;;;;;;19.61;100.00;101864.69;5051130;28;20107;-64
2023/10/02 09:06:25;;;;;;;30.77;19.48;;;;;;;19.71;100.00;101859.81;5055776;28;20053;-64
2023/10/02 09:09:13;;;;;;;30.42;20.17;;;;;;;19.75;100.00;101864.41;5062733;28;20040;-64
2023/10/02 09:11:34;;;;;;;30.45;19.50;;;;;;;19.88;100.00;101867.28;5050810;28;20063;-63
2023/10/02 09:19:58;;;;;;;30.45;19.63;;;;;;;19.97;100.00;101870.84;5050371;28;20083;-64
2023/10/02 09:22:25;;;;;;;30.42;19.35;;;;;;;19.93;100.00;101872.72;5050843;28;20124;-64
2023/10/02 09:24:57;;;;;;;30.65;19.58;;;;;;;19.88;100.00;101878.53;5050700;28;20090;-64
2023/10/02 09:27:24;;;;;;;31.33;19.88;;;;;;;19.84;100.00;101869.13;5050988;28;20503;-65
2023/10/02 09:30:15;;;;;;;29.45;19.50;;;;;;;19.84;100.00;101869.94;5050596;28;20033;-64
2023/10/02 09:32:47;;;;;;;30.73;20.52;;;;;;;19.84;100.00;101867.13;5050384;28;20039;-64
2023/10/02 09:35:21;;;;;;;30.65;19.88;;;;;;;19.85;100.00;101862.31;5050223;28;20462;-64
2023/10/02 09:37:55;;;;;;;30.90;20.48;;;;;;;19.87;100.00;101865.66;5052609;28;20028;-63
2023/10/02 09:40:21;;;;;;;31.42;19.52;;;;;;;19.93;100.00;101864.28;5054879;28;20029;-63
2023/10/02 09:42:49;;;;;;;28.77;18.75;;;;;;;20.06;100.00;101865.13;5058223;28;20866;-63
2023/10/02 09:45:15;;;;;;;28.85;19.23;;;;;;;20.18;100.00;101855.91;5054710;28;20469;-63
2023/10/02 09:47:44;;;;;;;29.80;18.80;;;;;;;20.33;100.00;101860.03;5064004;28;20029;-63
2023/10/02 09:50:26;;;;;;;29.63;19.05;;;;;;;20.44;100.00;101855.63;5058967;28;20110;-63
2023/10/02 09:53:19;;;;;;;29.30;18.23;;;;;;;20.55;100.00;101855.97;5052279;28;20093;-63
2023/10/02 09:55:57;;;;;;;30.83;19.50;;;;;;;20.48;100.00;101859.34;5055697;28;20131;-63
2023/10/02 09:58:35;;;;;;;28.85;18.45;;;;;;;20.51;100.00;101864.28;5050125;28;20029;-63
2023/10/02 10:01:35;;;;;;;32.72;19.00;;;;;;;20.65;100.00;101863.94;5050462;28;20041;-63
2023/10/02 10:04:08;;;;;;;32.33;19.75;;;;;;;20.66;100.00;101857.16;5028361;28;20059;-62
2023/10/02 10:06:48;;;;;;;31.90;20.70;;;;;;;20.75;100.00;101859.84;5062693;28;20059;-63
2023/10/02 10:11:42;;;;;;;31.02;19.35;;;;;;;20.97;100.00;101861.34;5063173;28;20052;-63
2023/10/02 10:14:42;;;;;;;31.55;19.50;;;;;;;21.15;100.00;101861.94;5069790;28;20036;-62
2023/10/02 10:17:56;;;;;;;28.40;18.20;;;;;;;21.24;100.00;101861.81;5068253;28;20117;-63
2023/10/02 10:20:19;;;;;;;30.83;19.27;;;;;;;21.31;99.36;101853.56;5089323;28;20056;-63
2023/10/02 10:22:55;;;;;;;29.42;19.13;;;;;;;21.38;99.93;101852.13;5073616;28;20032;-63
2023/10/02 10:27:54;;;;;;;28.97;18.70;;;;;;;21.27;100.00;101837.75;5078367;28;20040;-62
2023/10/02 10:30:27;;;;;;;29.77;19.70;;;;;;;21.22;98.53;101838.81;5061207;28;20106;-63
2023/10/02 10:33:13;;;;;;;30.35;19.75;;;;;;;21.26;99.98;101847.38;5068874;28;20040;-63
2023/10/02 10:35:49;;;;;;;29.38;18.70;;;;;;;21.31;100.00;101850.75;5064080;28;20043;-63
2023/10/02 10:38:26;;;;;;;29.75;19.42;;;;;;;21.33;98.80;101839.97;5089522;28;20036;-63
2023/10/02 10:40:54;;;;;;;29.50;19.00;;;;;;;21.35;97.49;101845.25;5062507;28;20544;-63
2023/10/02 10:43:26;;;;;;;30.55;19.83;;;;;;;21.48;99.00;101846.84;5049656;28;20379;-63
2023/10/02 10:45:54;;;;;;;29.88;20.00;;;;;;;21.59;96.57;101841.56;5056657;28;20492;-62
2023/10/02 10:48:24;;;;;;;30.35;19.70;;;;;;;21.68;97.73;101826.50;5069575;28;20494;-63
2023/10/02 10:50:57;;;;;;;30.88;19.55;;;;;;;21.69;96.99;101823.31;5073164;28;20133;-63
2023/10/02 10:53:29;;;;;;;28.48;18.77;;;;;;;21.70;96.35;101829.78;5089672;28;20663;-63
2023/10/02 10:56:17;;;;;;;31.45;21.05;;;;;;;21.69;96.99;101822.50;5089474;28;20027;-63
2023/10/02 10:58:44;;;;;;;33.13;21.92;;;;;;;21.73;96.51;101826.22;5081807;28;20032;-63
2023/10/02 11:01:13;;;;;;;30.05;19.95;;;;;;;21.79;96.84;101827.63;5073534;28;20032;-63
2023/10/02 11:03:39;;;;;;;31.38;20.38;;;;;;;21.72;96.57;101822.59;5073344;28;20024;-63
2023/10/02 11:06:09;;;;;;;31.67;20.08;;;;;;;21.70;97.58;101826.97;5073287;28;20048;-63
2023/10/02 11:08:37;;;;;;;30.35;20.08;;;;;;;21.72;97.77;101819.78;5072469;28;20112;-63
2023/10/02 11:11:09;;;;;;;31.05;19.95;;;;;;;21.81;97.05;101816.81;5077676;28;20051;-64
2023/10/02 11:13:50;;;;;;;30.25;20.50;;;;;;;21.90;97.20;101816.63;5093318;28;20028;-64
2023/10/02 11:16:35;;;;;;;32.35;19.70;;;;;;;22.03;97.31;101820.19;5076346;28;20115;-64
2023/10/02 11:22:19;;;;;;;30.60;19.38;;;;;;;22.31;97.15;101805.22;5083299;28;20051;-63
2023/10/02 11:24:55;;;;;;;30.55;19.38;;;;;;;22.34;95.77;101805.28;5090344;28;20074;-63
2023/10/02 11:27:21;;;;;;;31.60;20.02;;;;;;;22.39;95.04;101793.75;5092882;28;20048;-63
2023/10/02 11:30:09;;;;;;;31.33;19.92;;;;;;;22.51;94.02;101797.69;5092636;28;20050;-63
2023/10/02 11:32:53;;;;;;;30.40;20.13;;;;;;;22.71;95.11;101792.91;5076327;28;20441;-63
2023/10/02 11:35:28;;;;;;;31.90;21.38;;;;;;;22.81;94.74;101795.19;5072642;28;20071;-64
2023/10/02 11:37:54;;;;;;;31.77;21.17;;;;;;;22.94;93.88;101797.88;5069485;28;20039;-64
2023/10/02 11:40:25;;;;;;;29.50;19.75;;;;;;;22.99;93.24;101792.78;5072451;28;20462;-64
2023/10/02 11:42:53;;;;;;;31.15;21.17;;;;;;;23.10;91.58;101793.00;5072602;28;20439;-64
2023/10/02 11:45:19;;;;;;;31.48;23.30;;;;;;;23.16;89.24;101796.34;5072518;28;20116;-64
2023/10/02 11:47:44;;;;;;;30.02;19.85;;;;;;;23.18;89.87;101789.16;5088802;28;20107;-64
2023/10/02 11:50:12;;;;;;;29.70;18.83;;;;;;;23.29;91.17;101789.38;5088225;28;20028;-63
2023/10/02 11:52:37;;;;;;;29.30;18.30;;;;;;;23.42;90.47;101787.25;5087964;28;20537;-63
2023/10/02 11:55:03;;;;;;;27.70;18.60;;;;;;;23.55;90.23;101772.94;5092489;28;20028;-63
2023/10/02 11:57:29;;;;;;;28.83;18.25;;;;;;;23.53;88.80;101778.97;5067451;28;20127;-63
2023/10/02 11:59:55;;;;;;;28.77;18.38;;;;;;;23.54;88.30;101766.50;5055154;28;20029;-63
2023/10/02 12:02:20;;;;;;;28.08;18.33;;;;;;;23.53;88.55;101765.66;5061062;28;20051;-63
2023/10/02 12:04:46;;;;;;;29.13;18.48;;;;;;;23.57;89.98;101770.56;5067660;28;20036;-63
2023/10/02 12:07:15;;;;;;;28.20;18.38;;;;;;;23.60;88.99;101767.00;5060236;28;20380;-63
2023/10/02 12:09:41;;;;;;;28.42;17.83;;;;;;;23.67;88.29;101767.13;5062435;28;20091;-62
2023/10/02 12:12:07;;;;;;;27.23;17.67;;;;;;;23.79;88.46;101761.31;5062178;28;20029;-63
2023/10/02 12:14:32;;;;;;;28.23;18.73;;;;;;;23.93;88.85;101762.75;5061972;28;20031;-63
2023/10/02 12:16:58;;;;;;;27.73;17.88;;;;;;;23.94;87.56;101765.25;5058306;28;20029;-63
2023/10/02 12:19:35;;;;;;;28.50;18.75;;;;;;;23.94;87.66;101762.44;5064124;28;20048;-63
2023/10/02 12:22:01;;;;;;;27.92;18.00;;;;;;;23.89;87.23;101756.25;5061284;28;20476;-63
2023/10/02 12:24:26;;;;;;;28.73;17.35;;;;;;;23.74;86.93;101753.16;5060048;28;20025;-63
2023/10/02 12:26:52;;;;;;;27.17;17.25;;;;;;;23.72;88.01;101757.53;5073044;28;20063;-63